Time;durP1;ratioP1;P1;durP2;ratioP2;P2;SDS_P1;SDS_P2;PMS_P1;PMS_P2;Temp;Humidity;BMP_temperature;BMP_pressure;BME280_temperature;BME280_humidity;BME280_pressure;Samples;Min_cycle;Max_cycle;Signal;HPM_P1;HPM_P2
2022/06/11 00:01:35;;;;;;;10.90;9.60;;;17.80;99.90;;;;;;5044147;28;20401;-84
2022/06/11 00:04:10;;;;;;;13.27;11.27;;;17.80;99.90;;;;;;5002027;28;20407;-85
2022/06/11 00:06:42;;;;;;;12.65;11.35;;;17.70;99.90;;;;;;5014680;28;20472;-84
2022/06/11 00:09:11;;;;;;;11.98;10.13;;;17.80;99.90;;;;;;5002295;28;20377;-85
2022/06/11 00:11:39;;;;;;;10.70;9.15;;;17.70;99.90;;;;;;5011587;28;20410;-86
2022/06/11 00:14:07;;;;;;;12.55;10.23;;;17.70;99.90;;;;;;5018951;28;20419;-86
2022/06/11 00:16:34;;;;;;;12.40;10.95;;;17.70;99.90;;;;;;5013107;28;20434;-84
2022/06/11 00:19:03;;;;;;;14.73;12.90;;;17.60;99.90;;;;;;5013005;28;20764;-83
2022/06/11 00:21:34;;;;;;;12.82;11.43;;;17.60;99.90;;;;;;5007489;28;20423;-85
2022/06/11 00:24:04;;;;;;;17.37;13.13;;;17.70;99.90;;;;;;5043817;28;20417;-85
2022/06/11 00:26:31;;;;;;;16.13;14.43;;;17.70;99.90;;;;;;5006871;28;20506;-84
2022/06/11 00:29:00;;;;;;;16.02;13.88;;;17.60;99.90;;;;;;5002928;28;20421;-86
2022/06/11 00:31:28;;;;;;;15.82;13.80;;;17.60;99.90;;;;;;5014563;28;20918;-86
2022/06/11 00:33:56;;;;;;;15.15;13.38;;;17.60;99.90;;;;;;5003182;28;20411;-86
2022/06/11 00:36:23;;;;;;;16.50;14.57;;;17.60;99.90;;;;;;5013693;28;20418;-84
2022/06/11 00:38:51;;;;;;;15.30;13.65;;;17.60;99.90;;;;;;5007402;28;20913;-86
2022/06/11 00:41:21;;;;;;;17.10;14.65;;;17.60;99.90;;;;;;5002927;28;20918;-87
2022/06/11 00:43:49;;;;;;;15.75;13.70;;;17.40;99.90;;;;;;5020706;28;20410;-86
2022/06/11 00:46:39;;;;;;;16.50;14.52;;;17.50;99.90;;;;;;5007377;28;20399;-86
2022/06/11 00:49:36;;;;;;;15.98;14.27;;;17.40;99.90;;;;;;5041401;28;20492;-84
2022/06/11 00:52:12;;;;;;;15.32;13.73;;;17.40;99.90;;;;;;5043016;28;20463;-87
2022/06/11 00:54:44;;;;;;;15.68;14.07;;;17.50;99.90;;;;;;5002976;28;20940;-85
2022/06/11 00:57:13;;;;;;;16.48;14.75;;;17.50;99.90;;;;;;5006974;28;20838;-86
2022/06/11 00:59:46;;;;;;;16.35;14.68;;;17.50;99.90;;;;;;5009826;28;20400;-86
2022/06/11 01:02:14;;;;;;;16.05;14.30;;;17.50;99.90;;;;;;5003444;28;20402;-87
2022/06/11 01:04:41;;;;;;;17.67;15.02;;;17.50;99.90;;;;;;5015378;28;20402;-87
2022/06/11 01:07:34;;;;;;;16.88;14.48;;;17.50;99.90;;;;;;5002093;28;20424;-87
2022/06/11 01:10:08;;;;;;;16.75;14.95;;;17.50;99.90;;;;;;5006607;28;20495;-85
2022/06/11 01:13:01;;;;;;;15.13;13.60;;;17.50;99.90;;;;;;5015139;28;20887;-85
2022/06/11 01:15:36;;;;;;;15.93;14.27;;;17.50;99.90;;;;;;5029147;28;20393;-87
2022/06/11 01:18:38;;;;;;;16.88;15.07;;;17.50;99.90;;;;;;4997309;28;20775;-84
2022/06/11 01:21:08;;;;;;;15.40;13.73;;;17.50;99.90;;;;;;5005137;28;20440;-86
2022/06/11 01:23:54;;;;;;;17.33;14.82;;;17.50;99.90;;;;;;5006398;28;20492;-86
2022/06/11 01:26:53;;;;;;;17.70;14.68;;;17.50;99.90;;;;;;5001501;28;20430;-86
2022/06/11 01:29:40;;;;;;;15.38;13.57;;;17.50;99.90;;;;;;4997672;28;20396;-86
2022/06/11 01:32:23;;;;;;;16.55;13.55;;;17.40;99.90;;;;;;5011403;28;20733;-85
2022/06/11 01:35:12;;;;;;;17.50;15.63;;;17.40;99.90;;;;;;5011346;28;20403;-86
2022/06/11 01:38:29;;;;;;;17.70;15.23;;;17.50;99.90;;;;;;5016482;28;20958;-87
2022/06/11 01:41:16;;;;;;;13.67;11.37;;;17.40;99.90;;;;;;4981955;28;20408;-86
2022/06/11 01:43:47;;;;;;;15.15;13.55;;;17.40;99.90;;;;;;5009789;28;20420;-87
2022/06/11 01:46:32;;;;;;;16.73;15.02;;;17.40;99.90;;;;;;4997830;28;20548;-86
2022/06/11 01:49:06;;;;;;;17.97;15.30;;;17.50;99.90;;;;;;5016033;28;20421;-86
2022/06/11 01:51:53;;;;;;;16.10;14.23;;;17.40;99.90;;;;;;5005128;28;20912;-87
2022/06/11 01:54:23;;;;;;;17.00;15.20;;;17.40;99.90;;;;;;5006742;28;20441;-85
2022/06/11 01:57:28;;;;;;;17.48;14.60;;;17.40;99.90;;;;;;5017319;28;20920;-86
2022/06/11 02:00:07;;;;;;;14.90;12.98;;;17.40;99.90;;;;;;5014356;28;20394;-85
2022/06/11 02:02:51;;;;;;;14.90;13.30;;;17.50;99.90;;;;;;5014170;28;20407;-86
2022/06/11 02:05:18;;;;;;;15.98;13.98;;;17.40;99.90;;;;;;5016076;28;20452;-85
2022/06/11 02:08:34;;;;;;;14.25;12.23;;;17.40;99.90;;;;;;5016796;28;20895;-86
2022/06/11 02:11:10;;;;;;;18.05;14.98;;;17.40;99.90;;;;;;5012782;28;20765;-85
2022/06/11 02:14:03;;;;;;;18.50;15.50;;;17.40;99.90;;;;;;5013078;28;20765;-86
2022/06/11 02:16:40;;;;;;;17.30;15.47;;;17.40;99.90;;;;;;5003261;28;20898;-85
2022/06/11 02:19:13;;;;;;;18.15;15.63;;;17.40;99.90;;;;;;5005880;28;20470;-86
2022/06/11 02:21:49;;;;;;;19.05;16.98;;;17.40;99.90;;;;;;5011091;28;20455;-87
2022/06/11 02:24:34;;;;;;;20.63;17.15;;;17.40;99.90;;;;;;5020597;28;20932;-83
2022/06/11 02:27:09;;;;;;;19.95;16.45;;;17.40;99.90;;;;;;4992529;28;20427;-85
2022/06/11 02:29:39;;;;;;;20.10;16.95;;;17.40;99.90;;;;;;5014995;28;20742;-86
2022/06/11 02:32:10;;;;;;;18.63;16.35;;;17.30;99.90;;;;;;4993179;28;20400;-86
2022/06/11 02:34:44;;;;;;;18.65;16.63;;;17.30;99.90;;;;;;5014928;28;20406;-87
2022/06/11 02:37:33;;;;;;;18.92;16.17;;;17.40;99.90;;;;;;4995892;28;20941;-87
2022/06/11 02:40:09;;;;;;;18.40;16.00;;;17.40;99.90;;;;;;5007876;28;20907;-86
2022/06/11 02:42:38;;;;;;;18.70;16.70;;;17.40;99.90;;;;;;5008161;28;20484;-87
2022/06/11 02:45:10;;;;;;;20.00;16.38;;;17.40;99.90;;;;;;5009862;28;20504;-84
2022/06/11 02:47:42;;;;;;;19.98;17.55;;;17.40;99.90;;;;;;5001334;28;20808;-87
2022/06/11 02:50:22;;;;;;;18.70;16.52;;;17.40;99.90;;;;;;5016803;28;20400;-86
2022/06/11 02:52:50;;;;;;;20.55;17.38;;;17.50;99.90;;;;;;5006334;28;20407;-86
2022/06/11 02:55:18;;;;;;;19.13;15.95;;;17.40;99.90;;;;;;5009964;28;20401;-86
2022/06/11 02:57:46;;;;;;;19.08;16.50;;;17.40;99.90;;;;;;5012046;28;20396;-86
2022/06/11 03:00:18;;;;;;;19.88;16.25;;;17.40;99.90;;;;;;5017246;28;20477;-87
2022/06/11 03:02:47;;;;;;;19.55;15.80;;;17.40;99.90;;;;;;5010559;28;20410;-87
2022/06/11 03:05:23;;;;;;;19.15;16.20;;;17.50;99.90;;;;;;5011310;28;20846;-87
2022/06/11 03:07:51;;;;;;;17.80;15.77;;;17.50;99.90;;;;;;5014456;28;20398;-87
2022/06/11 03:10:22;;;;;;;19.08;16.48;;;17.50;99.90;;;;;;5005485;28;20488;-86
2022/06/11 03:12:50;;;;;;;19.25;16.25;;;17.50;99.90;;;;;;5014388;28;20399;-87
2022/06/11 03:15:19;;;;;;;17.03;15.23;;;17.50;99.90;;;;;;5013562;28;21018;-87
2022/06/11 03:17:48;;;;;;;18.35;15.98;;;17.50;99.90;;;;;;5013111;28;20386;-86
2022/06/11 03:20:18;;;;;;;19.25;16.35;;;17.50;99.90;;;;;;5001317;28;20393;-86
2022/06/11 03:22:46;;;;;;;20.48;16.92;;;17.50;99.90;;;;;;5050730;28;20756;-87
2022/06/11 03:25:14;;;;;;;19.77;16.63;;;17.50;99.90;;;;;;5016806;28;20409;-87
2022/06/11 03:27:43;;;;;;;19.02;15.68;;;17.50;99.90;;;;;;5021975;28;20403;-86
2022/06/11 03:30:13;;;;;;;17.25;14.75;;;17.50;99.90;;;;;;5034360;28;20401;-85
2022/06/11 03:32:41;;;;;;;16.77;14.98;;;17.50;99.90;;;;;;5016923;28;20404;-83
2022/06/11 03:35:10;;;;;;;18.02;15.40;;;17.50;99.90;;;;;;5013828;28;20408;-86
2022/06/11 03:37:39;;;;;;;17.10;14.63;;;17.50;99.90;;;;;;5018900;28;20401;-85
2022/06/11 03:40:07;;;;;;;17.38;15.32;;;17.50;99.90;;;;;;5021877;28;20417;-87
2022/06/11 03:42:35;;;;;;;16.73;14.23;;;17.50;99.90;;;;;;5015702;28;20434;-87
2022/06/11 03:45:03;;;;;;;15.88;14.18;;;17.50;99.90;;;;;;5012025;28;20779;-86
2022/06/11 03:47:31;;;;;;;16.40;13.43;;;17.50;99.90;;;;;;5020481;28;20962;-86
2022/06/11 03:49:59;;;;;;;16.25;13.90;;;17.40;99.90;;;;;;5019172;28;20753;-87
2022/06/11 03:52:28;;;;;;;17.30;14.15;;;17.50;99.90;;;;;;5020960;28;20400;-86
2022/06/11 03:54:56;;;;;;;15.27;13.13;;;17.40;99.90;;;;;;5012575;28;20403;-87
2022/06/11 03:57:26;;;;;;;15.57;13.88;;;17.40;99.90;;;;;;4995910;28;20432;-84
2022/06/11 03:59:54;;;;;;;17.15;13.98;;;17.40;99.90;;;;;;5035988;28;20406;-87
2022/06/11 04:02:23;;;;;;;15.07;12.67;;;17.40;99.90;;;;;;5020708;28;20399;-84
2022/06/11 04:04:50;;;;;;;14.77;13.15;;;17.40;99.90;;;;;;5013220;28;20480;-85
2022/06/11 04:07:18;;;;;;;16.33;13.38;;;17.40;99.90;;;;;;5005484;28;20483;-86
2022/06/11 04:09:46;;;;;;;17.17;13.55;;;17.40;99.90;;;;;;5018432;28;20402;-85
2022/06/11 04:12:18;;;;;;;14.90;13.10;;;17.40;99.90;;;;;;5014149;28;20909;-86
2022/06/11 04:14:48;;;;;;;14.00;12.50;;;17.40;99.90;;;;;;5019785;28;20404;-85
2022/06/11 04:17:24;;;;;;;14.95;13.07;;;17.40;99.90;;;;;;5016841;28;20393;-85
2022/06/11 04:19:52;;;;;;;17.80;13.73;;;17.30;99.90;;;;;;4999371;28;20519;-85
2022/06/11 04:22:21;;;;;;;16.70;14.27;;;17.30;99.90;;;;;;5019199;28;20485;-86
2022/06/11 04:24:49;;;;;;;15.77;12.70;;;17.30;99.90;;;;;;5017812;28;20415;-85
2022/06/11 04:27:19;;;;;;;16.13;12.37;;;17.30;99.90;;;;;;5023106;28;20385;-87
2022/06/11 04:29:51;;;;;;;15.55;13.55;;;17.30;99.90;;;;;;5015321;28;20910;-85
2022/06/11 04:32:21;;;;;;;15.23;12.17;;;17.30;99.90;;;;;;5015728;28;20389;-83
2022/06/11 04:34:50;;;;;;;15.23;12.35;;;17.40;99.90;;;;;;5011885;28;20887;-85
2022/06/11 04:37:21;;;;;;;13.68;12.18;;;17.20;99.90;;;;;;5012832;28;20511;-84
2022/06/11 04:39:52;;;;;;;13.43;12.02;;;17.20;99.90;;;;;;5022793;28;20441;-85
2022/06/11 04:42:24;;;;;;;11.77;10.57;;;17.30;99.90;;;;;;5014175;28;20404;-84
2022/06/11 04:44:52;;;;;;;13.65;11.93;;;17.40;99.90;;;;;;5012197;28;20407;-85
2022/06/11 04:47:23;;;;;;;13.18;11.07;;;17.30;99.90;;;;;;5018309;28;20780;-86
2022/06/11 04:49:54;;;;;;;13.52;10.73;;;17.20;99.90;;;;;;5003330;28;20385;-86
2022/06/11 04:52:22;;;;;;;13.55;11.30;;;17.20;99.90;;;;;;5011286;28;20409;-85
2022/06/11 04:54:50;;;;;;;11.77;10.45;;;17.30;99.90;;;;;;5014608;28;20585;-84
2022/06/11 04:57:18;;;;;;;13.77;10.77;;;17.40;99.90;;;;;;5053321;28;20458;-85
2022/06/11 04:59:46;;;;;;;12.27;10.10;;;17.50;99.90;;;;;;5015830;28;20418;-86
2022/06/11 05:02:14;;;;;;;10.57;9.48;;;17.40;99.90;;;;;;5019452;28;20398;-86
2022/06/11 05:04:42;;;;;;;10.35;9.25;;;17.30;99.90;;;;;;5014191;28;20897;-85
2022/06/11 05:07:10;;;;;;;11.68;9.18;;;17.40;99.90;;;;;;5010805;28;20437;-85
2022/06/11 05:09:38;;;;;;;10.82;8.52;;;17.40;99.90;;;;;;5025183;28;20496;-85
2022/06/11 05:12:07;;;;;;;10.60;8.80;;;17.30;99.90;;;;;;5015049;28;20452;-86
2022/06/11 05:14:34;;;;;;;8.98;8.07;;;17.20;99.90;;;;;;5013679;28;20438;-84
2022/06/11 05:17:03;;;;;;;9.02;7.97;;;17.20;99.90;;;;;;5018251;28;20397;-84
2022/06/11 05:19:31;;;;;;;10.02;8.25;;;17.20;99.90;;;;;;5011439;28;20446;-85
2022/06/11 05:21:59;;;;;;;7.65;6.85;;;17.30;99.90;;;;;;5008792;28;20441;-84
2022/06/11 05:24:29;;;;;;;8.80;7.90;;;17.40;99.90;;;;;;5019624;28;20708;-85
2022/06/11 05:27:06;;;;;;;7.43;6.63;;;17.40;99.90;;;;;;5008807;28;20891;-85
2022/06/11 05:29:41;;;;;;;7.07;6.37;;;17.40;99.90;;;;;;5017663;28;20482;-85
2022/06/11 05:32:09;;;;;;;7.95;6.90;;;17.40;99.90;;;;;;5016801;28;20401;-84
2022/06/11 05:34:37;;;;;;;7.03;6.25;;;17.40;99.90;;;;;;5013975;28;20481;-85
2022/06/11 05:37:04;;;;;;;7.53;6.40;;;17.50;99.90;;;;;;5015114;28;20406;-84
2022/06/11 05:39:40;;;;;;;7.30;6.15;;;17.50;99.90;;;;;;5008894;28;20433;-85
2022/06/11 05:42:09;;;;;;;7.70;6.43;;;17.50;99.90;;;;;;5016014;28;20425;-85
2022/06/11 05:44:36;;;;;;;7.70;6.45;;;17.50;99.90;;;;;;5011232;28;20417;-86
2022/06/11 05:47:05;;;;;;;7.13;6.00;;;17.50;99.90;;;;;;5015196;28;20409;-86
2022/06/11 05:49:37;;;;;;;6.60;5.90;;;17.60;99.90;;;;;;5014498;28;20406;-84
2022/06/11 05:52:13;;;;;;;6.95;5.75;;;17.50;99.90;;;;;;5015240;28;20432;-84
2022/06/11 05:54:43;;;;;;;5.72;4.95;;;17.50;99.90;;;;;;5009872;28;20976;-85
2022/06/11 05:57:15;;;;;;;5.37;4.87;;;17.50;99.90;;;;;;5011718;28;20418;-81
2022/06/11 05:59:47;;;;;;;6.22;5.13;;;17.40;99.90;;;;;;5016641;28;20397;-86
2022/06/11 06:02:17;;;;;;;6.40;5.20;;;17.50;99.90;;;;;;5012460;28;20815;-83
2022/06/11 06:04:46;;;;;;;6.53;5.18;;;17.50;99.90;;;;;;5035621;28;20410;-86
2022/06/11 06:07:14;;;;;;;7.15;5.47;;;17.40;99.90;;;;;;4991718;28;20397;-86
2022/06/11 06:09:41;;;;;;;8.63;5.23;;;17.40;99.90;;;;;;5008926;28;20408;-86
2022/06/11 06:12:09;;;;;;;5.18;4.68;;;17.40;99.90;;;;;;5010819;28;20403;-86
2022/06/11 06:14:37;;;;;;;6.30;5.40;;;17.50;99.90;;;;;;5049607;27;20972;-85
2022/06/11 06:17:05;;;;;;;7.20;5.05;;;17.40;99.90;;;;;;5014255;28;20462;-86
2022/06/11 06:19:52;;;;;;;5.53;4.95;;;17.50;99.90;;;;;;5017918;28;20906;-81
2022/06/11 06:22:20;;;;;;;7.90;5.38;;;17.50;99.90;;;;;;5020020;28;20821;-82
2022/06/11 06:24:48;;;;;;;6.50;4.75;;;17.50;99.90;;;;;;5043719;28;20847;-84
2022/06/11 06:27:16;;;;;;;5.67;5.07;;;17.40;99.90;;;;;;5010734;28;20474;-84
2022/06/11 06:29:44;;;;;;;6.32;4.57;;;17.40;99.90;;;;;;5041784;28;20402;-83
2022/06/11 06:32:12;;;;;;;6.47;4.70;;;17.40;99.90;;;;;;5018411;28;20435;-86
2022/06/11 06:34:40;;;;;;;7.55;4.97;;;17.40;99.90;;;;;;5017436;28;20484;-85
2022/06/11 06:37:07;;;;;;;5.40;4.50;;;17.50;99.90;;;;;;5018349;28;20407;-84
2022/06/11 06:39:35;;;;;;;6.38;4.80;;;17.50;99.90;;;;;;5018490;28;20444;-85
2022/06/11 06:42:04;;;;;;;4.10;3.70;;;17.60;99.90;;;;;;5016745;28;20492;-84
2022/06/11 06:44:32;;;;;;;4.97;4.15;;;17.60;99.90;;;;;;5015990;28;20411;-85
2022/06/11 06:47:00;;;;;;;6.75;4.20;;;17.60;99.90;;;;;;5019518;28;20434;-86
2022/06/11 06:49:28;;;;;;;6.75;5.15;;;17.80;99.90;;;;;;5019368;28;20413;-85
2022/06/11 06:51:56;;;;;;;5.43;3.80;;;17.80;99.90;;;;;;5014028;28;20421;-84
2022/06/11 06:54:24;;;;;;;4.70;3.30;;;17.80;99.90;;;;;;5011632;28;20908;-85
2022/06/11 06:56:51;;;;;;;5.20;3.63;;;17.80;99.90;;;;;;5013067;28;20430;-85
2022/06/11 06:59:19;;;;;;;4.65;3.50;;;17.90;99.90;;;;;;5019605;28;20522;-84
2022/06/11 07:01:47;;;;;;;5.10;3.72;;;18.00;99.90;;;;;;5019777;28;20407;-84
2022/06/11 07:04:15;;;;;;;4.05;3.58;;;18.10;99.90;;;;;;5013032;28;21011;-86
2022/06/11 07:06:53;;;;;;;4.22;3.72;;;18.10;99.90;;;;;;5029986;28;20729;-86
2022/06/11 07:09:21;;;;;;;6.75;3.65;;;18.20;99.90;;;;;;5018889;28;20466;-83
2022/06/11 07:11:49;;;;;;;4.07;3.60;;;18.20;99.90;;;;;;5020344;28;20490;-84
2022/06/11 07:14:16;;;;;;;4.50;3.80;;;18.20;99.90;;;;;;5019285;28;20399;-84
2022/06/11 07:16:52;;;;;;;4.38;3.72;;;18.40;99.90;;;;;;5019806;28;20410;-85
2022/06/11 07:19:46;;;;;;;4.38;3.40;;;18.40;99.90;;;;;;5018311;28;20429;-85
2022/06/11 07:22:26;;;;;;;4.15;3.45;;;18.40;99.90;;;;;;5018301;28;20397;-83
2022/06/11 07:24:54;;;;;;;4.18;3.30;;;18.40;99.90;;;;;;5017010;28;20403;-86
2022/06/11 07:27:28;;;;;;;4.38;3.10;;;18.30;99.90;;;;;;5023464;28;20811;-87
2022/06/11 07:30:08;;;;;;;4.80;3.37;;;18.20;99.90;;;;;;5019792;28;20462;-84
2022/06/11 07:32:38;;;;;;;3.75;3.10;;;18.20;99.90;;;;;;5022503;28;20396;-85
2022/06/11 07:35:10;;;;;;;3.00;2.70;;;18.20;99.90;;;;;;5025236;28;20984;-86
2022/06/11 07:37:40;;;;;;;3.60;3.22;;;18.20;99.90;;;;;;5017784;28;20454;-85
2022/06/11 07:40:09;;;;;;;4.22;3.25;;;18.30;99.90;;;;;;5021635;28;20382;-85
2022/06/11 07:42:37;;;;;;;5.20;3.90;;;18.30;99.90;;;;;;5016128;28;20456;-84
2022/06/11 07:45:05;;;;;;;6.63;3.20;;;18.40;99.90;;;;;;5011373;28;20417;-85
2022/06/11 07:50:32;;;;;;;3.45;2.40;;;18.50;99.90;;;;;;5017254;28;20885;-86
2022/06/11 07:53:00;;;;;;;3.10;2.73;;;18.50;99.90;;;;;;5021228;28;20393;-84
2022/06/11 07:55:30;;;;;;;3.20;2.75;;;18.50;99.90;;;;;;5014479;28;20428;-84
2022/06/11 07:57:58;;;;;;;4.45;2.72;;;18.40;99.90;;;;;;5018906;28;20486;-84
2022/06/11 08:00:30;;;;;;;3.03;2.40;;;18.50;99.90;;;;;;5018814;28;20413;-85
2022/06/11 08:02:59;;;;;;;3.93;2.63;;;18.50;99.90;;;;;;5019158;28;20409;-81
2022/06/11 08:05:26;;;;;;;5.20;2.83;;;18.60;99.90;;;;;;5013041;28;20414;-85
2022/06/11 08:07:55;;;;;;;4.40;3.03;;;18.60;99.90;;;;;;5016015;28;20409;-85
2022/06/11 08:10:25;;;;;;;3.45;2.92;;;18.70;99.90;;;;;;5020317;28;20392;-83
2022/06/11 08:12:52;;;;;;;4.60;2.85;;;18.70;99.90;;;;;;5000529;28;20430;-84
2022/06/11 08:15:21;;;;;;;4.75;2.63;;;18.70;99.90;;;;;;5013794;28;20436;-86
2022/06/11 08:17:49;;;;;;;3.05;2.63;;;18.70;99.90;;;;;;5013495;28;20921;-82
2022/06/11 08:20:24;;;;;;;4.80;2.88;;;18.70;99.90;;;;;;5008612;28;20404;-84
2022/06/11 08:22:52;;;;;;;4.55;2.92;;;18.80;99.90;;;;;;5006115;28;20877;-85
2022/06/11 08:25:21;;;;;;;4.80;2.47;;;19.00;99.90;;;;;;5017033;28;20404;-84
2022/06/11 08:27:49;;;;;;;4.28;3.10;;;19.00;99.90;;;;;;5014204;28;20393;-84
2022/06/11 08:30:20;;;;;;;3.10;2.80;;;19.10;99.90;;;;;;5019890;28;20396;-82
2022/06/11 08:32:48;;;;;;;3.55;2.72;;;19.20;99.90;;;;;;5018253;28;20411;-85
2022/06/11 08:35:19;;;;;;;4.43;3.00;;;19.10;99.90;;;;;;5010460;28;20397;-84
2022/06/11 08:37:47;;;;;;;3.53;2.63;;;19.10;99.90;;;;;;4999840;28;20415;-85
2022/06/11 08:40:17;;;;;;;4.43;3.10;;;19.10;99.90;;;;;;5024852;28;20462;-84
2022/06/11 08:42:56;;;;;;;4.72;3.05;;;19.00;99.90;;;;;;5009690;28;20912;-86
2022/06/11 08:45:32;;;;;;;4.30;3.20;;;19.00;99.90;;;;;;5020958;28;20474;-85
2022/06/11 08:48:04;;;;;;;6.35;3.08;;;19.20;99.90;;;;;;5023785;28;20928;-85
2022/06/11 08:50:40;;;;;;;4.55;2.90;;;19.20;99.90;;;;;;5016720;28;20899;-85
2022/06/11 08:53:08;;;;;;;3.85;2.90;;;19.20;99.90;;;;;;5012455;28;20859;-84
2022/06/11 08:55:38;;;;;;;4.82;2.97;;;19.30;99.90;;;;;;5007484;28;20885;-85
2022/06/11 08:58:21;;;;;;;3.78;2.90;;;19.50;99.90;;;;;;5019175;28;20447;-84
2022/06/11 09:01:06;;;;;;;4.10;3.00;;;19.60;99.90;;;;;;5014320;28;20876;-85
2022/06/11 09:04:17;;;;;;;3.50;2.97;;;19.70;99.90;;;;;;5018665;28;20832;-84
2022/06/11 09:07:14;;;;;;;3.42;2.80;;;20.00;99.90;;;;;;5014648;28;20409;-82
2022/06/11 09:09:53;;;;;;;3.50;2.80;;;20.00;99.90;;;;;;5017175;28;20393;-83
2022/06/11 09:12:33;;;;;;;3.40;2.63;;;20.00;99.90;;;;;;4993980;28;20815;-86
2022/06/11 09:15:07;;;;;;;4.53;2.60;;;19.90;99.90;;;;;;5008609;28;20779;-85
2022/06/11 09:17:48;;;;;;;3.08;2.63;;;19.80;99.90;;;;;;5015428;28;20401;-85
2022/06/11 09:20:31;;;;;;;4.13;2.87;;;19.70;99.90;;;;;;4998687;28;20399;-85
2022/06/11 09:23:27;;;;;;;2.90;2.63;;;19.70;99.90;;;;;;5025837;28;20889;-84
2022/06/11 09:26:26;;;;;;;3.35;2.60;;;19.60;99.90;;;;;;4999204;28;20450;-85
2022/06/11 09:29:13;;;;;;;3.28;2.33;;;19.70;99.90;;;;;;5016479;28;20416;-84
2022/06/11 09:31:56;;;;;;;3.10;2.70;;;19.80;99.90;;;;;;5017393;28;20390;-85
2022/06/11 09:34:46;;;;;;;4.05;2.97;;;19.90;99.90;;;;;;5019985;28;20406;-84
2022/06/11 09:37:15;;;;;;;5.40;2.70;;;19.90;99.90;;;;;;5015763;28;20397;-85
2022/06/11 09:40:02;;;;;;;3.00;2.40;;;20.00;99.90;;;;;;5011795;28;20409;-85
2022/06/11 09:42:46;;;;;;;3.55;2.70;;;19.90;99.90;;;;;;5019306;28;20409;-85
2022/06/11 09:45:25;;;;;;;3.80;2.67;;;19.90;99.90;;;;;;5030529;28;20413;-85
2022/06/11 09:48:01;;;;;;;3.67;2.70;;;19.90;99.90;;;;;;5009555;28;20415;-83
2022/06/11 09:50:40;;;;;;;3.95;2.55;;;19.90;99.90;;;;;;5019076;28;20405;-86
2022/06/11 09:53:20;;;;;;;3.25;2.40;;;19.80;99.90;;;;;;5013458;28;20400;-86
2022/06/11 09:56:26;;;;;;;2.70;2.50;;;19.80;99.90;;;;;;5024735;28;20441;-84
2022/06/11 09:59:04;;;;;;;11.90;3.25;;;19.70;99.90;;;;;;5017434;28;20420;-86
2022/06/11 10:01:54;;;;;;;6.70;2.63;;;19.70;99.90;;;;;;5020597;28;20405;-86
2022/06/11 10:04:31;;;;;;;4.20;2.80;;;19.80;99.90;;;;;;5015696;28;20418;-86
2022/06/11 10:07:14;;;;;;;3.78;2.67;;;20.00;99.90;;;;;;5021932;28;20419;-86
2022/06/11 10:09:53;;;;;;;3.10;2.60;;;20.20;99.90;;;;;;5017761;28;20770;-86
2022/06/11 10:12:46;;;;;;;4.25;2.88;;;20.20;99.90;;;;;;5022419;28;20399;-86
2022/06/11 10:15:23;;;;;;;3.75;2.53;;;20.30;99.90;;;;;;5018202;28;20408;-86
2022/06/11 10:18:07;;;;;;;3.80;2.75;;;20.40;99.90;;;;;;5015545;28;20454;-86
2022/06/11 10:20:51;;;;;;;4.28;2.92;;;20.40;99.90;;;;;;5005258;28;20465;-86
2022/06/11 10:23:31;;;;;;;4.20;2.67;;;20.50;99.90;;;;;;5018759;28;20509;-86
2022/06/11 10:26:18;;;;;;;3.22;2.63;;;20.50;99.90;;;;;;5026060;28;20742;-86
2022/06/11 10:28:54;;;;;;;3.67;3.07;;;20.40;99.90;;;;;;5012538;28;20399;-87
2022/06/11 10:31:28;;;;;;;3.45;2.70;;;20.40;99.90;;;;;;5020241;28;20398;-86
2022/06/11 10:34:01;;;;;;;3.47;3.15;;;20.30;99.90;;;;;;5001246;28;20400;-84
2022/06/11 10:36:38;;;;;;;3.50;2.80;;;20.30;99.90;;;;;;5016481;28;20494;-83
2022/06/11 10:39:19;;;;;;;3.25;2.95;;;20.30;99.90;;;;;;5018635;28;20401;-86
2022/06/11 10:42:09;;;;;;;4.00;2.90;;;20.40;99.90;;;;;;5018128;28;20429;-84
2022/06/11 10:44:51;;;;;;;4.05;3.05;;;20.50;99.90;;;;;;5016026;28;20476;-86
2022/06/11 10:47:25;;;;;;;3.20;2.90;;;20.50;99.90;;;;;;5021824;28;20806;-84
2022/06/11 10:50:11;;;;;;;3.13;2.40;;;20.70;99.90;;;;;;5017907;28;20403;-84
2022/06/11 10:52:44;;;;;;;2.90;2.70;;;21.00;99.90;;;;;;5017206;28;20469;-85
2022/06/11 10:55:56;;;;;;;3.00;2.60;;;21.00;99.90;;;;;;5020719;28;20428;-85
2022/06/11 10:58:32;;;;;;;3.43;2.70;;;21.00;99.90;;;;;;5024075;28;20462;-85
2022/06/11 11:01:29;;;;;;;5.40;2.63;;;20.90;99.90;;;;;;5017885;28;20409;-86
2022/06/11 11:04:17;;;;;;;3.42;2.55;;;21.00;99.90;;;;;;5018393;28;20411;-85
2022/06/11 11:06:45;;;;;;;3.72;2.70;;;21.20;99.90;;;;;;5014074;28;20439;-85
2022/06/11 11:09:25;;;;;;;3.00;2.20;;;21.20;99.90;;;;;;5052725;28;20397;-86
2022/06/11 11:12:00;;;;;;;2.60;2.20;;;21.30;99.90;;;;;;5049454;28;20867;-85
2022/06/11 11:14:43;;;;;;;2.50;2.15;;;21.50;99.90;;;;;;5017164;28;20805;-85
2022/06/11 11:17:20;;;;;;;2.40;2.20;;;21.60;99.90;;;;;;5020360;28;20401;-84
2022/06/11 11:20:39;;;;;;;3.58;2.33;;;21.70;99.90;;;;;;5018057;28;20403;-85
2022/06/11 11:22:41;;;;;;;3.05;2.20;;;21.80;99.90;;;;;;5019489;28;20754;-85
2022/06/11 11:25:36;;;;;;;3.05;2.30;;;22.00;99.90;;;;;;5019477;28;20395;-83
2022/06/11 11:28:06;;;;;;;3.17;2.33;;;22.10;99.90;;;;;;5018484;28;20405;-85
2022/06/11 11:30:38;;;;;;;3.25;2.40;;;22.10;99.90;;;;;;5018352;28;20491;-84
2022/06/11 11:33:23;;;;;;;2.60;2.40;;;22.20;99.90;;;;;;5021071;28;20400;-85
2022/06/11 11:36:02;;;;;;;3.65;2.20;;;22.00;99.90;;;;;;5002791;28;20461;-85
2022/06/11 11:38:36;;;;;;;3.72;2.22;;;21.90;99.90;;;;;;5017581;28;20401;-85
2022/06/11 11:41:04;;;;;;;4.10;2.30;;;21.70;99.90;;;;;;5008342;28;20409;-86
2022/06/11 11:43:39;;;;;;;4.15;2.40;;;21.60;99.90;;;;;;5014672;28;20414;-86
2022/06/11 11:46:14;;;;;;;3.10;2.30;;;21.60;99.90;;;;;;5018127;28;20415;-86
2022/06/11 11:48:48;;;;;;;3.23;2.30;;;21.80;99.90;;;;;;5015300;28;20410;-85
2022/06/11 11:51:27;;;;;;;2.90;2.40;;;22.10;99.90;;;;;;5013822;28;20588;-85
2022/06/11 11:53:59;;;;;;;2.38;2.13;;;22.30;99.90;;;;;;5004099;28;20412;-85
2022/06/11 11:56:40;;;;;;;2.78;2.25;;;22.30;99.90;;;;;;5003922;28;20430;-83
2022/06/11 11:59:26;;;;;;;2.45;2.20;;;22.40;99.90;;;;;;5004660;28;20415;-86
2022/06/11 12:02:03;;;;;;;2.80;2.40;;;22.20;99.90;;;;;;4997664;28;20417;-86
2022/06/11 12:04:48;;;;;;;3.53;2.20;;;22.20;99.90;;;;;;4997608;28;20829;-83
2022/06/11 12:07:21;;;;;;;3.43;2.10;;;22.50;99.90;;;;;;5000634;28;20410;-86
2022/06/11 12:09:53;;;;;;;3.17;2.07;;;22.50;99.90;;;;;;5007030;28;20421;-86
2022/06/11 12:12:31;;;;;;;2.20;1.80;;;22.50;99.90;;;;;;4995316;28;20408;-84
2022/06/11 12:15:12;;;;;;;4.50;2.10;;;22.40;99.90;;;;;;5002492;28;20400;-86
2022/06/11 12:17:54;;;;;;;2.83;2.17;;;22.20;99.90;;;;;;5030073;28;20405;-84
2022/06/11 12:20:34;;;;;;;2.67;2.10;;;22.30;99.90;;;;;;4998445;28;20410;-84
2022/06/11 12:23:39;;;;;;;2.63;1.93;;;22.20;99.90;;;;;;4998991;28;20423;-83
2022/06/11 12:26:14;;;;;;;2.22;1.90;;;22.00;99.90;;;;;;5002972;28;20405;-85
2022/06/11 12:29:05;;;;;;;3.28;2.20;;;21.80;99.90;;;;;;5043066;28;20797;-86
2022/06/11 12:31:34;;;;;;;2.60;2.20;;;21.80;99.90;;;;;;5023828;28;20409;-83
2022/06/11 12:34:02;;;;;;;3.40;2.33;;;21.70;99.90;;;;;;5014977;28;20486;-86
2022/06/11 12:36:55;;;;;;;3.42;2.40;;;21.70;99.90;;;;;;5016577;28;20769;-83
2022/06/11 12:39:53;;;;;;;4.97;2.42;;;21.70;99.90;;;;;;5018634;28;20433;-86
2022/06/11 12:42:46;;;;;;;2.95;2.20;;;21.60;99.90;;;;;;5011399;28;20460;-85
2022/06/11 12:45:44;;;;;;;3.25;2.20;;;21.60;99.90;;;;;;5010063;28;20405;-87
2022/06/11 12:48:34;;;;;;;4.80;2.58;;;21.50;99.90;;;;;;4994095;28;21058;-87
2022/06/11 12:51:23;;;;;;;3.30;3.00;;;21.50;99.90;;;;;;5026333;28;20389;-85
2022/06/11 12:54:01;;;;;;;5.03;3.10;;;21.40;99.90;;;;;;5013981;28;20386;-86
2022/06/11 12:56:32;;;;;;;4.80;3.08;;;21.40;99.90;;;;;;5015183;28;20441;-85
2022/06/11 12:59:11;;;;;;;4.68;3.60;;;21.30;99.90;;;;;;5012716;28;20438;-86
2022/06/11 13:02:02;;;;;;;7.30;3.20;;;21.30;99.90;;;;;;5009687;28;20407;-85
2022/06/11 13:04:48;;;;;;;3.43;3.10;;;21.20;99.90;;;;;;5009448;28;20399;-85
2022/06/11 13:07:34;;;;;;;4.38;3.30;;;21.20;99.90;;;;;;5041267;28;20948;-85
2022/06/11 13:10:11;;;;;;;4.60;3.38;;;21.20;99.90;;;;;;5016412;28;20494;-86
2022/06/11 13:13:17;;;;;;;3.58;3.03;;;21.30;99.90;;;;;;5012005;28;20426;-82
2022/06/11 13:15:57;;;;;;;3.67;2.90;;;21.30;99.90;;;;;;5014281;28;20944;-85
2022/06/11 13:18:43;;;;;;;4.85;2.83;;;21.40;99.90;;;;;;5012369;28;20407;-84
2022/06/11 13:21:26;;;;;;;4.10;2.97;;;21.70;99.90;;;;;;5008040;28;20682;-85
2022/06/11 13:24:19;;;;;;;4.95;3.20;;;21.90;99.90;;;;;;5018815;28;20440;-85